Pagrindinis puslapis
METAR-TAF:

METAR-TAF

Oro uostai :

Sanya, Kinija

platuma: 18-18N, ilguma: 109-24E, Aukštis: 27 m

Dabartinis oras

Ataskaita buvo paskelbta 29 minutes, ne 19:00 UTC
Vėjas 4 kt iš Rytų
Temperatūra 26°C
Drėgmė 94%
Slėgis 1005 hPa
Matomumas 10 km arba daugiau
Mažai debesys ne aukštis 2000 ft

METAR: ZJSY 301900Z 09002MPS 9999 FEW020 26/25 Q1005 NOSIG

Laikas: 03:29 (19:29 UTC)

Prognozė

Ataskaita buvo paskelbta 4 valandos ir 27 minutes, ne 15:02 UTC
Prognozė galioja nuo 30 metu 18 UTC su 01 metu 18 UTC
Vėjas 6 kt iš Rytų
Matomumas 10 km arba daugiau
Mažai debesys ne aukštis 2000 ft
Laikinai
nuo 01 metu 06 UTC su 01 metu 10 UTC
Išsisklaidę debesys ne aukštis 1600 ft
Mažai debesys ne aukštis 2500 ft, Liūtiniai kamuoliniai debesys.
perkūnija, lietus

TAF: ZJSY 301502Z 3018/0118 09003MPS 9999 FEW020 TX32/0106Z TN26/3021Z TEMPO 0106/0110 -TSRA SCT016 FEW025CB

Orai ataskaitas ir orų prognozės (METAR, TAF).

turimą stotys yra geltonos ir raudonos taškus žemėlapyje.

Perkelti pele per norėdami pamatyti stoties vardą.

Tada spustelėkite, norėdami matyti oro stebėjimo ir prognozės.

Norėdami pakeisti žemėlapį: spustelėkite ant žalios mygtukų su juodo kryžiaus žemyn,; žalią mygtuką su brūkšneliu, jei norite nutolinti; arba žalių rodyklių gretimoms žemėlapius.


METAR-TAF: